메인 페이지
METAR-TAF:

METAR-TAF

공항 :

라 아우로라 국제공항

과테말라, 과테말라

위도: 14-35N, 경도: 090-31W, 고도: 1489m

현재 날씨관측

예보는 33분 전, 14:00시(UTC)에 발표되었습니다.
12kt
온도 18°C
습도 83%
기압 1026 hPa
시정 10km 이상
고도 1000ft 상공 구름 조금
고도 20000ft 상공 구름 보통

METAR: MGGT 191400Z 36012KT 9999 FEW010 SCT200 18/15 Q1026 A3030

시각: 08:33 (14:33 UTC)

예보

예보 대상 시간: 19일 12시부터 20일 12시까지 (UTC)
12kt
시정 10km 이상
고도 1400ft 상공 구름 조금
전환 중
19일 14시부터 19일 16시까지 (UTC)
16kt
고도 1800ft 상공 구름 보통
일시적
19일 21시부터 19일 24시까지 (UTC)
고도 2000ft 상공 구름 보통, 타워링 적운.
고도 2500ft 상공 구름 조금, 적란운.
전환 중
20일 01시부터 20일 03시까지 (UTC)
고도 1400ft 상공 구름 보통

TAF: MGGT 1912/2012 36012KT 9999 FEW014 TX25/1920Z TN14/1912Z BECMG 1914/1916 36016KT SCT018 TEMPO 1921/1924 SCT020TCU FEW025CB BECMG 2001/2003 SCT014

4,000개 이상의 공항 관측 자료 및 예보 (METAR 및 TAF 보고).

지도상에서 검색 가능한 기상관측소가 노란 점과 빨간 점으로 표시되어 있습니다.

기상관측소 명을 보려면 표시 위로 마우스를 이동하세요.

날씨 관측과 예보를 보려면 클릭하세요.

지도 변경 : 확대하려면 엑스 표시가 있는 녹색 버튼, 축소하려면 빼기 표시가 있는 녹색 버튼, 다음 페이지의 지도를 보려면 녹색 화살표를 클릭하세요.


METAR-TAF: